sensor_id;sensor_type;location;lat;lon;timestamp;P1;durP1;ratioP1;P2;durP2;ratioP2
26407;SDS011;14583;43.604;1.364;2023-06-10T00:00:12;11.13;;;2.50;;
26407;SDS011;14583;43.604;1.364;2023-06-10T00:02:40;5.30;;;2.30;;
26407;SDS011;14583;43.604;1.364;2023-06-10T00:05:06;5.63;;;2.20;;
26407;SDS011;14583;43.604;1.364;2023-06-10T00:07:33;7.47;;;2.45;;
26407;SDS011;14583;43.604;1.364;2023-06-10T00:10:03;9.98;;;2.35;;
26407;SDS011;14583;43.604;1.364;2023-06-10T00:12:31;5.47;;;2.50;;
26407;SDS011;14583;43.604;1.364;2023-06-10T00:15:02;8.48;;;2.22;;
26407;SDS011;14583;43.604;1.364;2023-06-10T00:17:29;13.50;;;3.08;;
26407;SDS011;14583;43.604;1.364;2023-06-10T00:19:54;8.18;;;2.35;;
26407;SDS011;14583;43.604;1.364;2023-06-10T00:22:20;5.55;;;2.53;;
26407;SDS011;14583;43.604;1.364;2023-06-10T00:24:47;8.98;;;2.67;;
26407;SDS011;14583;43.604;1.364;2023-06-10T00:27:12;5.18;;;2.53;;
26407;SDS011;14583;43.604;1.364;2023-06-10T00:29:38;8.32;;;2.65;;
26407;SDS011;14583;43.604;1.364;2023-06-10T00:32:04;7.53;;;2.42;;
26407;SDS011;14583;43.604;1.364;2023-06-10T00:34:30;7.50;;;2.58;;
26407;SDS011;14583;43.604;1.364;2023-06-10T00:36:57;8.13;;;2.65;;
26407;SDS011;14583;43.604;1.364;2023-06-10T00:39:22;4.63;;;2.20;;
26407;SDS011;14583;43.604;1.364;2023-06-10T00:41:48;9.95;;;2.28;;
26407;SDS011;14583;43.604;1.364;2023-06-10T00:44:14;4.97;;;2.00;;
26407;SDS011;14583;43.604;1.364;2023-06-10T00:46:40;6.30;;;2.17;;
26407;SDS011;14583;43.604;1.364;2023-06-10T00:49:06;5.68;;;2.22;;
26407;SDS011;14583;43.604;1.364;2023-06-10T00:51:33;5.13;;;2.17;;
26407;SDS011;14583;43.604;1.364;2023-06-10T00:54:00;6.45;;;2.45;;
26407;SDS011;14583;43.604;1.364;2023-06-10T00:56:25;9.75;;;2.75;;
26407;SDS011;14583;43.604;1.364;2023-06-10T00:58:53;11.75;;;2.25;;
26407;SDS011;14583;43.604;1.364;2023-06-10T01:01:19;7.78;;;2.10;;
26407;SDS011;14583;43.604;1.364;2023-06-10T01:03:45;7.50;;;2.50;;
26407;SDS011;14583;43.604;1.364;2023-06-10T01:09:00;7.45;;;2.05;;
26407;SDS011;14583;43.604;1.364;2023-06-10T01:11:36;7.43;;;2.08;;
26407;SDS011;14583;43.604;1.364;2023-06-10T01:14:25;5.65;;;2.15;;
26407;SDS011;14583;43.604;1.364;2023-06-10T01:16:52;7.50;;;2.10;;
26407;SDS011;14583;43.604;1.364;2023-06-10T01:19:18;6.38;;;2.20;;
26407;SDS011;14583;43.604;1.364;2023-06-10T01:21:43;6.65;;;2.40;;
26407;SDS011;14583;43.604;1.364;2023-06-10T01:24:13;7.32;;;2.05;;
26407;SDS011;14583;43.604;1.364;2023-06-10T01:26:44;6.68;;;1.80;;
26407;SDS011;14583;43.604;1.364;2023-06-10T01:29:36;6.70;;;1.85;;
26407;SDS011;14583;43.604;1.364;2023-06-10T01:34:56;6.15;;;2.13;;
26407;SDS011;14583;43.604;1.364;2023-06-10T01:37:22;8.80;;;2.30;;
26407;SDS011;14583;43.604;1.364;2023-06-10T01:39:50;9.25;;;2.53;;
26407;SDS011;14583;43.604;1.364;2023-06-10T01:42:17;6.88;;;2.80;;
26407;SDS011;14583;43.604;1.364;2023-06-10T01:44:43;11.48;;;2.50;;
26407;SDS011;14583;43.604;1.364;2023-06-10T01:47:09;15.25;;;2.28;;
26407;SDS011;14583;43.604;1.364;2023-06-10T01:49:34;8.15;;;2.15;;
26407;SDS011;14583;43.604;1.364;2023-06-10T01:52:00;10.93;;;2.17;;
26407;SDS011;14583;43.604;1.364;2023-06-10T01:54:26;12.30;;;2.33;;
26407;SDS011;14583;43.604;1.364;2023-06-10T01:56:51;7.85;;;2.00;;
26407;SDS011;14583;43.604;1.364;2023-06-10T01:59:17;8.48;;;2.05;;
26407;SDS011;14583;43.604;1.364;2023-06-10T02:01:43;9.30;;;2.10;;
26407;SDS011;14583;43.604;1.364;2023-06-10T02:04:09;8.68;;;2.10;;
26407;SDS011;14583;43.604;1.364;2023-06-10T02:06:34;6.47;;;2.13;;
26407;SDS011;14583;43.604;1.364;2023-06-10T02:09:00;10.90;;;2.78;;
26407;SDS011;14583;43.604;1.364;2023-06-10T02:11:26;7.70;;;2.20;;
26407;SDS011;14583;43.604;1.364;2023-06-10T02:13:52;10.85;;;2.22;;
26407;SDS011;14583;43.604;1.364;2023-06-10T02:16:18;9.10;;;2.03;;
26407;SDS011;14583;43.604;1.364;2023-06-10T02:18:43;8.32;;;2.67;;
26407;SDS011;14583;43.604;1.364;2023-06-10T02:21:09;9.52;;;2.17;;
26407;SDS011;14583;43.604;1.364;2023-06-10T02:23:35;13.13;;;2.08;;
26407;SDS011;14583;43.604;1.364;2023-06-10T02:26:01;13.27;;;2.20;;
26407;SDS011;14583;43.604;1.364;2023-06-10T02:28:27;5.65;;;2.53;;
26407;SDS011;14583;43.604;1.364;2023-06-10T02:30:55;7.40;;;2.13;;
26407;SDS011;14583;43.604;1.364;2023-06-10T02:33:22;8.77;;;2.40;;
26407;SDS011;14583;43.604;1.364;2023-06-10T02:35:48;3.80;;;2.10;;
26407;SDS011;14583;43.604;1.364;2023-06-10T02:38:14;7.13;;;3.05;;
26407;SDS011;14583;43.604;1.364;2023-06-10T02:40:39;5.78;;;2.40;;
26407;SDS011;14583;43.604;1.364;2023-06-10T02:43:05;5.65;;;2.55;;
26407;SDS011;14583;43.604;1.364;2023-06-10T02:45:30;11.15;;;2.47;;
26407;SDS011;14583;43.604;1.364;2023-06-10T02:47:56;14.90;;;2.33;;
26407;SDS011;14583;43.604;1.364;2023-06-10T02:50:22;8.43;;;2.45;;
26407;SDS011;14583;43.604;1.364;2023-06-10T02:52:48;7.25;;;2.85;;
26407;SDS011;14583;43.604;1.364;2023-06-10T02:55:14;7.75;;;2.65;;
26407;SDS011;14583;43.604;1.364;2023-06-10T02:57:40;6.88;;;2.25;;
26407;SDS011;14583;43.604;1.364;2023-06-10T03:00:06;7.97;;;2.40;;
26407;SDS011;14583;43.604;1.364;2023-06-10T03:02:36;10.52;;;2.70;;
26407;SDS011;14583;43.604;1.364;2023-06-10T03:05:03;11.38;;;2.25;;
26407;SDS011;14583;43.604;1.364;2023-06-10T03:07:30;9.52;;;2.25;;
26407;SDS011;14583;43.604;1.364;2023-06-10T03:09:56;10.77;;;2.67;;
26407;SDS011;14583;43.604;1.364;2023-06-10T03:12:22;14.05;;;2.70;;
26407;SDS011;14583;43.604;1.364;2023-06-10T03:14:47;12.48;;;2.75;;
26407;SDS011;14583;43.604;1.364;2023-06-10T03:17:13;7.97;;;2.50;;
26407;SDS011;14583;43.604;1.364;2023-06-10T03:19:38;10.43;;;2.78;;
26407;SDS011;14583;43.604;1.364;2023-06-10T03:22:11;7.20;;;2.50;;
26407;SDS011;14583;43.604;1.364;2023-06-10T03:24:40;15.25;;;2.60;;
26407;SDS011;14583;43.604;1.364;2023-06-10T03:27:08;5.88;;;2.63;;
26407;SDS011;14583;43.604;1.364;2023-06-10T03:29:36;9.15;;;2.83;;
26407;SDS011;14583;43.604;1.364;2023-06-10T03:32:02;14.40;;;2.78;;
26407;SDS011;14583;43.604;1.364;2023-06-10T03:34:28;10.80;;;2.58;;
26407;SDS011;14583;43.604;1.364;2023-06-10T03:36:55;9.70;;;2.95;;
26407;SDS011;14583;43.604;1.364;2023-06-10T03:39:23;8.88;;;2.60;;
26407;SDS011;14583;43.604;1.364;2023-06-10T03:41:50;9.50;;;3.42;;
26407;SDS011;14583;43.604;1.364;2023-06-10T03:44:16;6.47;;;2.50;;
26407;SDS011;14583;43.604;1.364;2023-06-10T03:46:41;12.20;;;3.13;;
26407;SDS011;14583;43.604;1.364;2023-06-10T03:49:07;10.30;;;2.47;;
26407;SDS011;14583;43.604;1.364;2023-06-10T03:51:34;13.40;;;3.17;;
26407;SDS011;14583;43.604;1.364;2023-06-10T03:54:00;8.93;;;3.28;;
26407;SDS011;14583;43.604;1.364;2023-06-10T03:56:26;11.10;;;3.00;;
26407;SDS011;14583;43.604;1.364;2023-06-10T03:58:53;14.82;;;3.35;;
26407;SDS011;14583;43.604;1.364;2023-06-10T04:01:19;8.43;;;3.00;;
26407;SDS011;14583;43.604;1.364;2023-06-10T04:03:46;13.43;;;2.90;;
26407;SDS011;14583;43.604;1.364;2023-06-10T04:06:13;9.93;;;2.72;;
26407;SDS011;14583;43.604;1.364;2023-06-10T04:08:41;8.27;;;2.83;;
26407;SDS011;14583;43.604;1.364;2023-06-10T04:11:06;7.80;;;2.95;;
26407;SDS011;14583;43.604;1.364;2023-06-10T04:13:32;15.15;;;4.13;;
26407;SDS011;14583;43.604;1.364;2023-06-10T04:15:57;16.67;;;3.35;;
26407;SDS011;14583;43.604;1.364;2023-06-10T04:18:23;6.68;;;3.00;;
26407;SDS011;14583;43.604;1.364;2023-06-10T04:20:49;8.70;;;3.38;;
26407;SDS011;14583;43.604;1.364;2023-06-10T04:23:14;8.82;;;3.33;;
26407;SDS011;14583;43.604;1.364;2023-06-10T04:25:40;9.65;;;3.17;;
26407;SDS011;14583;43.604;1.364;2023-06-10T04:28:06;12.82;;;3.45;;
26407;SDS011;14583;43.604;1.364;2023-06-10T04:30:31;17.45;;;3.95;;
26407;SDS011;14583;43.604;1.364;2023-06-10T04:32:57;9.52;;;3.08;;
26407;SDS011;14583;43.604;1.364;2023-06-10T04:35:23;12.77;;;3.60;;
26407;SDS011;14583;43.604;1.364;2023-06-10T04:37:51;11.45;;;3.35;;
26407;SDS011;14583;43.604;1.364;2023-06-10T04:40:17;15.20;;;3.72;;
26407;SDS011;14583;43.604;1.364;2023-06-10T04:42:42;19.27;;;3.15;;
26407;SDS011;14583;43.604;1.364;2023-06-10T04:45:08;13.77;;;3.05;;
26407;SDS011;14583;43.604;1.364;2023-06-10T04:47:34;16.17;;;3.33;;
26407;SDS011;14583;43.604;1.364;2023-06-10T04:50:00;10.30;;;3.40;;
26407;SDS011;14583;43.604;1.364;2023-06-10T04:52:26;17.50;;;3.78;;
26407;SDS011;14583;43.604;1.364;2023-06-10T04:54:52;14.73;;;3.00;;
26407;SDS011;14583;43.604;1.364;2023-06-10T04:57:19;13.38;;;3.42;;
26407;SDS011;14583;43.604;1.364;2023-06-10T04:59:45;14.70;;;3.50;;
26407;SDS011;14583;43.604;1.364;2023-06-10T05:02:11;17.23;;;3.38;;
26407;SDS011;14583;43.604;1.364;2023-06-10T05:04:36;9.38;;;3.30;;
26407;SDS011;14583;43.604;1.364;2023-06-10T05:07:02;13.43;;;3.40;;
26407;SDS011;14583;43.604;1.364;2023-06-10T05:09:28;10.45;;;3.50;;
26407;SDS011;14583;43.604;1.364;2023-06-10T05:11:54;16.88;;;3.55;;
26407;SDS011;14583;43.604;1.364;2023-06-10T05:14:20;15.90;;;3.40;;
26407;SDS011;14583;43.604;1.364;2023-06-10T05:16:47;11.38;;;3.35;;
26407;SDS011;14583;43.604;1.364;2023-06-10T05:19:13;7.95;;;3.05;;
26407;SDS011;14583;43.604;1.364;2023-06-10T05:21:38;7.97;;;3.17;;
26407;SDS011;14583;43.604;1.364;2023-06-10T05:24:04;7.95;;;3.40;;
26407;SDS011;14583;43.604;1.364;2023-06-10T05:26:30;12.02;;;3.50;;
26407;SDS011;14583;43.604;1.364;2023-06-10T05:29:02;15.77;;;2.75;;
26407;SDS011;14583;43.604;1.364;2023-06-10T05:31:28;10.43;;;3.28;;
26407;SDS011;14583;43.604;1.364;2023-06-10T05:33:54;17.63;;;3.00;;
26407;SDS011;14583;43.604;1.364;2023-06-10T05:36:19;22.25;;;3.30;;
26407;SDS011;14583;43.604;1.364;2023-06-10T05:38:46;9.23;;;3.13;;
26407;SDS011;14583;43.604;1.364;2023-06-10T05:41:11;10.25;;;3.60;;
26407;SDS011;14583;43.604;1.364;2023-06-10T05:43:37;14.73;;;3.17;;
26407;SDS011;14583;43.604;1.364;2023-06-10T05:46:03;18.98;;;3.22;;
26407;SDS011;14583;43.604;1.364;2023-06-10T05:48:28;15.98;;;2.92;;
26407;SDS011;14583;43.604;1.364;2023-06-10T05:50:54;9.95;;;3.50;;
26407;SDS011;14583;43.604;1.364;2023-06-10T05:53:19;11.30;;;2.40;;
26407;SDS011;14583;43.604;1.364;2023-06-10T05:55:45;8.35;;;3.17;;
26407;SDS011;14583;43.604;1.364;2023-06-10T05:58:11;6.35;;;3.15;;
26407;SDS011;14583;43.604;1.364;2023-06-10T06:00:40;8.70;;;3.30;;
26407;SDS011;14583;43.604;1.364;2023-06-10T06:03:09;8.00;;;2.88;;
26407;SDS011;14583;43.604;1.364;2023-06-10T06:05:35;12.43;;;3.28;;
26407;SDS011;14583;43.604;1.364;2023-06-10T06:08:06;9.15;;;3.30;;
26407;SDS011;14583;43.604;1.364;2023-06-10T06:10:32;15.82;;;3.42;;
26407;SDS011;14583;43.604;1.364;2023-06-10T06:12:58;12.85;;;3.28;;
26407;SDS011;14583;43.604;1.364;2023-06-10T06:15:25;8.13;;;3.08;;
26407;SDS011;14583;43.604;1.364;2023-06-10T06:17:50;15.93;;;3.40;;
26407;SDS011;14583;43.604;1.364;2023-06-10T06:20:18;11.57;;;2.53;;
26407;SDS011;14583;43.604;1.364;2023-06-10T06:22:44;9.15;;;2.70;;
26407;SDS011;14583;43.604;1.364;2023-06-10T06:25:10;7.07;;;2.88;;
26407;SDS011;14583;43.604;1.364;2023-06-10T06:27:35;7.35;;;2.80;;
26407;SDS011;14583;43.604;1.364;2023-06-10T06:30:01;11.85;;;3.03;;
26407;SDS011;14583;43.604;1.364;2023-06-10T06:32:27;9.02;;;3.10;;
26407;SDS011;14583;43.604;1.364;2023-06-10T06:34:53;11.65;;;2.90;;
26407;SDS011;14583;43.604;1.364;2023-06-10T06:37:25;12.05;;;3.45;;
26407;SDS011;14583;43.604;1.364;2023-06-10T06:39:51;12.90;;;2.67;;
26407;SDS011;14583;43.604;1.364;2023-06-10T06:42:18;7.68;;;2.78;;
26407;SDS011;14583;43.604;1.364;2023-06-10T06:44:44;6.38;;;2.97;;
26407;SDS011;14583;43.604;1.364;2023-06-10T06:47:11;7.13;;;2.88;;
26407;SDS011;14583;43.604;1.364;2023-06-10T06:49:37;7.00;;;2.28;;
26407;SDS011;14583;43.604;1.364;2023-06-10T06:52:02;6.97;;;2.50;;
26407;SDS011;14583;43.604;1.364;2023-06-10T06:54:28;10.95;;;2.75;;
26407;SDS011;14583;43.604;1.364;2023-06-10T06:56:54;9.95;;;2.83;;
26407;SDS011;14583;43.604;1.364;2023-06-10T06:59:20;9.45;;;3.05;;
26407;SDS011;14583;43.604;1.364;2023-06-10T07:01:46;11.40;;;3.10;;
26407;SDS011;14583;43.604;1.364;2023-06-10T07:04:11;9.35;;;2.90;;
26407;SDS011;14583;43.604;1.364;2023-06-10T07:06:39;12.38;;;3.00;;
26407;SDS011;14583;43.604;1.364;2023-06-10T07:09:05;5.55;;;2.50;;
26407;SDS011;14583;43.604;1.364;2023-06-10T07:11:31;7.75;;;2.83;;
26407;SDS011;14583;43.604;1.364;2023-06-10T07:13:57;8.95;;;3.20;;
26407;SDS011;14583;43.604;1.364;2023-06-10T07:16:23;8.15;;;2.45;;
26407;SDS011;14583;43.604;1.364;2023-06-10T07:18:48;6.28;;;2.60;;
26407;SDS011;14583;43.604;1.364;2023-06-10T07:21:14;6.88;;;2.40;;
26407;SDS011;14583;43.604;1.364;2023-06-10T07:23:43;10.90;;;2.50;;
26407;SDS011;14583;43.604;1.364;2023-06-10T07:26:09;8.68;;;2.80;;
26407;SDS011;14583;43.604;1.364;2023-06-10T07:28:36;8.48;;;2.30;;
26407;SDS011;14583;43.604;1.364;2023-06-10T07:31:02;5.25;;;2.10;;
26407;SDS011;14583;43.604;1.364;2023-06-10T07:33:28;8.65;;;2.30;;
26407;SDS011;14583;43.604;1.364;2023-06-10T07:35:54;4.35;;;2.13;;
26407;SDS011;14583;43.604;1.364;2023-06-10T07:38:19;7.47;;;2.20;;
26407;SDS011;14583;43.604;1.364;2023-06-10T07:40:45;5.85;;;1.80;;
26407;SDS011;14583;43.604;1.364;2023-06-10T07:43:11;7.63;;;2.13;;
26407;SDS011;14583;43.604;1.364;2023-06-10T07:45:39;5.25;;;2.13;;
26407;SDS011;14583;43.604;1.364;2023-06-10T07:48:05;3.97;;;2.25;;
26407;SDS011;14583;43.604;1.364;2023-06-10T07:50:30;9.95;;;2.75;;
26407;SDS011;14583;43.604;1.364;2023-06-10T07:52:56;10.43;;;2.28;;
26407;SDS011;14583;43.604;1.364;2023-06-10T07:55:22;7.35;;;2.10;;
26407;SDS011;14583;43.604;1.364;2023-06-10T07:57:47;7.18;;;2.42;;
26407;SDS011;14583;43.604;1.364;2023-06-10T08:00:13;9.18;;;2.25;;
26407;SDS011;14583;43.604;1.364;2023-06-10T08:02:39;5.60;;;2.30;;
26407;SDS011;14583;43.604;1.364;2023-06-10T08:05:05;5.03;;;2.20;;
26407;SDS011;14583;43.604;1.364;2023-06-10T08:07:31;6.75;;;1.98;;
26407;SDS011;14583;43.604;1.364;2023-06-10T08:09:56;6.78;;;2.13;;
26407;SDS011;14583;43.604;1.364;2023-06-10T08:12:22;6.20;;;1.90;;
26407;SDS011;14583;43.604;1.364;2023-06-10T08:14:48;7.60;;;2.15;;
26407;SDS011;14583;43.604;1.364;2023-06-10T08:17:14;7.03;;;2.20;;
26407;SDS011;14583;43.604;1.364;2023-06-10T08:19:39;8.07;;;2.30;;
26407;SDS011;14583;43.604;1.364;2023-06-10T08:22:05;4.97;;;2.35;;
26407;SDS011;14583;43.604;1.364;2023-06-10T08:24:31;5.03;;;2.00;;
26407;SDS011;14583;43.604;1.364;2023-06-10T08:26:56;4.05;;;1.80;;
26407;SDS011;14583;43.604;1.364;2023-06-10T08:29:22;8.05;;;1.90;;
26407;SDS011;14583;43.604;1.364;2023-06-10T08:31:48;6.20;;;2.20;;
26407;SDS011;14583;43.604;1.364;2023-06-10T08:34:14;3.83;;;1.75;;
26407;SDS011;14583;43.604;1.364;2023-06-10T08:36:40;8.50;;;1.95;;
26407;SDS011;14583;43.604;1.364;2023-06-10T08:39:06;5.88;;;1.83;;
26407;SDS011;14583;43.604;1.364;2023-06-10T08:41:34;4.93;;;1.70;;
26407;SDS011;14583;43.604;1.364;2023-06-10T08:44:17;5.18;;;1.90;;
26407;SDS011;14583;43.604;1.364;2023-06-10T08:46:52;9.38;;;2.20;;
26407;SDS011;14583;43.604;1.364;2023-06-10T08:49:20;4.47;;;1.85;;
26407;SDS011;14583;43.604;1.364;2023-06-10T08:51:51;7.40;;;2.10;;
26407;SDS011;14583;43.604;1.364;2023-06-10T08:54:25;6.60;;;2.13;;
26407;SDS011;14583;43.604;1.364;2023-06-10T08:56:53;4.97;;;2.08;;
26407;SDS011;14583;43.604;1.364;2023-06-10T08:59:21;3.50;;;1.67;;
26407;SDS011;14583;43.604;1.364;2023-06-10T09:01:47;4.57;;;1.88;;
26407;SDS011;14583;43.604;1.364;2023-06-10T09:04:13;4.15;;;2.00;;
26407;SDS011;14583;43.604;1.364;2023-06-10T09:06:39;4.68;;;2.10;;
26407;SDS011;14583;43.604;1.364;2023-06-10T09:09:06;4.78;;;1.80;;
26407;SDS011;14583;43.604;1.364;2023-06-10T09:11:32;4.57;;;2.20;;
26407;SDS011;14583;43.604;1.364;2023-06-10T09:13:58;5.82;;;1.95;;
26407;SDS011;14583;43.604;1.364;2023-06-10T09:16:24;3.92;;;1.70;;
26407;SDS011;14583;43.604;1.364;2023-06-10T09:18:50;7.70;;;2.13;;
26407;SDS011;14583;43.604;1.364;2023-06-10T09:21:23;12.30;;;2.00;;
26407;SDS011;14583;43.604;1.364;2023-06-10T09:23:49;3.45;;;1.80;;
26407;SDS011;14583;43.604;1.364;2023-06-10T09:26:15;3.10;;;1.95;;
26407;SDS011;14583;43.604;1.364;2023-06-10T09:28:43;5.97;;;2.15;;
26407;SDS011;14583;43.604;1.364;2023-06-10T09:31:09;5.95;;;1.83;;
26407;SDS011;14583;43.604;1.364;2023-06-10T09:33:37;2.28;;;1.95;;
26407;SDS011;14583;43.604;1.364;2023-06-10T09:36:06;7.10;;;2.30;;
26407;SDS011;14583;43.604;1.364;2023-06-10T09:38:33;3.33;;;1.83;;
26407;SDS011;14583;43.604;1.364;2023-06-10T09:40:59;4.13;;;2.15;;
26407;SDS011;14583;43.604;1.364;2023-06-10T09:43:38;4.45;;;1.92;;
26407;SDS011;14583;43.604;1.364;2023-06-10T09:46:05;3.80;;;2.40;;
26407;SDS011;14583;43.604;1.364;2023-06-10T09:48:34;4.28;;;2.30;;
26407;SDS011;14583;43.604;1.364;2023-06-10T09:51:00;2.28;;;1.80;;
26407;SDS011;14583;43.604;1.364;2023-06-10T09:53:26;5.05;;;1.83;;
26407;SDS011;14583;43.604;1.364;2023-06-10T09:55:52;4.97;;;2.03;;
26407;SDS011;14583;43.604;1.364;2023-06-10T09:58:23;3.30;;;2.08;;
26407;SDS011;14583;43.604;1.364;2023-06-10T10:01:09;3.05;;;1.90;;
26407;SDS011;14583;43.604;1.364;2023-06-10T10:03:46;2.05;;;1.67;;
26407;SDS011;14583;43.604;1.364;2023-06-10T10:06:14;3.88;;;2.00;;
26407;SDS011;14583;43.604;1.364;2023-06-10T10:08:41;3.28;;;1.80;;
26407;SDS011;14583;43.604;1.364;2023-06-10T10:11:06;2.88;;;2.00;;
26407;SDS011;14583;43.604;1.364;2023-06-10T10:13:33;2.88;;;1.95;;
26407;SDS011;14583;43.604;1.364;2023-06-10T10:16:01;5.15;;;1.92;;
26407;SDS011;14583;43.604;1.364;2023-06-10T10:18:43;2.33;;;1.70;;
26407;SDS011;14583;43.604;1.364;2023-06-10T10:21:15;3.55;;;1.75;;
26407;SDS011;14583;43.604;1.364;2023-06-10T10:23:47;4.60;;;2.22;;
26407;SDS011;14583;43.604;1.364;2023-06-10T10:26:27;3.75;;;2.63;;
26407;SDS011;14583;43.604;1.364;2023-06-10T10:29:16;8.40;;;1.90;;
26407;SDS011;14583;43.604;1.364;2023-06-10T10:34:16;1.80;;;1.50;;
26407;SDS011;14583;43.604;1.364;2023-06-10T10:36:49;3.30;;;2.03;;
26407;SDS011;14583;43.604;1.364;2023-06-10T10:39:15;4.47;;;1.60;;
26407;SDS011;14583;43.604;1.364;2023-06-10T10:41:42;1.92;;;1.63;;
26407;SDS011;14583;43.604;1.364;2023-06-10T10:44:08;2.83;;;1.65;;
26407;SDS011;14583;43.604;1.364;2023-06-10T10:46:44;4.57;;;1.90;;
26407;SDS011;14583;43.604;1.364;2023-06-10T10:49:15;6.53;;;1.98;;
26407;SDS011;14583;43.604;1.364;2023-06-10T10:51:55;7.95;;;2.08;;
26407;SDS011;14583;43.604;1.364;2023-06-10T10:54:28;5.93;;;1.60;;
26407;SDS011;14583;43.604;1.364;2023-06-10T10:57:18;3.70;;;1.70;;
26407;SDS011;14583;43.604;1.364;2023-06-10T10:59:46;6.18;;;1.85;;
26407;SDS011;14583;43.604;1.364;2023-06-10T11:02:32;3.75;;;1.63;;
26407;SDS011;14583;43.604;1.364;2023-06-10T11:04:57;4.38;;;1.40;;
26407;SDS011;14583;43.604;1.364;2023-06-10T11:07:26;4.55;;;1.58;;
26407;SDS011;14583;43.604;1.364;2023-06-10T11:10:05;3.45;;;1.65;;
26407;SDS011;14583;43.604;1.364;2023-06-10T11:12:50;3.25;;;1.60;;
26407;SDS011;14583;43.604;1.364;2023-06-10T11:15:27;3.53;;;1.55;;
26407;SDS011;14583;43.604;1.364;2023-06-10T11:20:44;2.10;;;1.65;;
26407;SDS011;14583;43.604;1.364;2023-06-10T11:23:10;2.67;;;1.60;;
26407;SDS011;14583;43.604;1.364;2023-06-10T11:25:49;2.83;;;1.60;;
26407;SDS011;14583;43.604;1.364;2023-06-10T11:28:18;2.15;;;1.73;;
26407;SDS011;14583;43.604;1.364;2023-06-10T11:30:45;4.30;;;2.00;;
26407;SDS011;14583;43.604;1.364;2023-06-10T11:33:17;2.92;;;1.88;;
26407;SDS011;14583;43.604;1.364;2023-06-10T11:35:43;3.15;;;2.08;;
26407;SDS011;14583;43.604;1.364;2023-06-10T11:38:09;4.50;;;2.40;;
26407;SDS011;14583;43.604;1.364;2023-06-10T11:40:36;5.45;;;3.08;;
26407;SDS011;14583;43.604;1.364;2023-06-10T11:43:03;3.28;;;2.53;;
26407;SDS011;14583;43.604;1.364;2023-06-10T11:45:29;6.35;;;2.55;;
26407;SDS011;14583;43.604;1.364;2023-06-10T11:47:58;4.10;;;2.33;;
26407;SDS011;14583;43.604;1.364;2023-06-10T11:50:31;5.80;;;2.38;;
26407;SDS011;14583;43.604;1.364;2023-06-10T11:55:24;4.30;;;2.55;;
26407;SDS011;14583;43.604;1.364;2023-06-10T11:58:05;8.40;;;3.28;;
26407;SDS011;14583;43.604;1.364;2023-06-10T12:00:50;4.53;;;2.80;;
26407;SDS011;14583;43.604;1.364;2023-06-10T12:03:26;4.88;;;2.88;;
26407;SDS011;14583;43.604;1.364;2023-06-10T12:06:01;6.65;;;3.00;;
26407;SDS011;14583;43.604;1.364;2023-06-10T12:08:28;3.95;;;2.50;;
26407;SDS011;14583;43.604;1.364;2023-06-10T12:10:54;4.53;;;2.20;;
26407;SDS011;14583;43.604;1.364;2023-06-10T12:13:21;2.60;;;1.85;;
26407;SDS011;14583;43.604;1.364;2023-06-10T12:15:48;3.83;;;2.85;;
26407;SDS011;14583;43.604;1.364;2023-06-10T12:18:23;4.22;;;2.80;;
26407;SDS011;14583;43.604;1.364;2023-06-10T12:20:49;8.70;;;6.05;;
26407;SDS011;14583;43.604;1.364;2023-06-10T12:23:16;6.88;;;5.50;;
26407;SDS011;14583;43.604;1.364;2023-06-10T12:25:50;6.57;;;3.25;;
26407;SDS011;14583;43.604;1.364;2023-06-10T12:28:17;3.47;;;1.98;;
26407;SDS011;14583;43.604;1.364;2023-06-10T12:30:45;1.95;;;1.50;;
26407;SDS011;14583;43.604;1.364;2023-06-10T12:35:50;4.57;;;2.72;;
26407;SDS011;14583;43.604;1.364;2023-06-10T12:38:26;2.65;;;2.00;;
26407;SDS011;14583;43.604;1.364;2023-06-10T12:40:52;3.72;;;1.90;;
26407;SDS011;14583;43.604;1.364;2023-06-10T12:43:19;4.00;;;2.45;;
26407;SDS011;14583;43.604;1.364;2023-06-10T12:45:46;3.45;;;1.60;;
26407;SDS011;14583;43.604;1.364;2023-06-10T12:48:16;2.42;;;1.48;;
26407;SDS011;14583;43.604;1.364;2023-06-10T12:50:43;2.17;;;1.60;;
26407;SDS011;14583;43.604;1.364;2023-06-10T12:53:09;4.07;;;1.38;;
26407;SDS011;14583;43.604;1.364;2023-06-10T12:55:38;3.55;;;1.70;;
26407;SDS011;14583;43.604;1.364;2023-06-10T12:58:04;2.42;;;1.67;;
26407;SDS011;14583;43.604;1.364;2023-06-10T13:00:30;2.65;;;2.40;;
26407;SDS011;14583;43.604;1.364;2023-06-10T13:02:56;1.65;;;1.50;;
26407;SDS011;14583;43.604;1.364;2023-06-10T13:05:22;3.05;;;1.40;;
26407;SDS011;14583;43.604;1.364;2023-06-10T13:07:48;2.70;;;1.45;;
26407;SDS011;14583;43.604;1.364;2023-06-10T13:10:14;9.30;;;2.58;;
26407;SDS011;14583;43.604;1.364;2023-06-10T13:12:41;2.65;;;1.60;;
26407;SDS011;14583;43.604;1.364;2023-06-10T13:15:08;3.15;;;2.17;;
26407;SDS011;14583;43.604;1.364;2023-06-10T13:17:34;3.17;;;1.90;;
26407;SDS011;14583;43.604;1.364;2023-06-10T13:20:01;4.07;;;1.50;;
26407;SDS011;14583;43.604;1.364;2023-06-10T13:22:31;2.90;;;2.13;;
26407;SDS011;14583;43.604;1.364;2023-06-10T13:24:58;6.00;;;1.60;;
26407;SDS011;14583;43.604;1.364;2023-06-10T13:27:24;4.13;;;1.30;;
26407;SDS011;14583;43.604;1.364;2023-06-10T13:29:50;1.90;;;1.35;;
26407;SDS011;14583;43.604;1.364;2023-06-10T13:32:16;8.23;;;1.40;;
26407;SDS011;14583;43.604;1.364;2023-06-10T13:34:41;2.50;;;1.67;;
26407;SDS011;14583;43.604;1.364;2023-06-10T13:37:07;3.00;;;1.70;;
26407;SDS011;14583;43.604;1.364;2023-06-10T13:39:33;1.95;;;1.33;;
26407;SDS011;14583;43.604;1.364;2023-06-10T13:41:58;2.35;;;1.45;;
26407;SDS011;14583;43.604;1.364;2023-06-10T13:44:24;5.47;;;1.67;;
26407;SDS011;14583;43.604;1.364;2023-06-10T13:46:49;1.60;;;1.40;;
26407;SDS011;14583;43.604;1.364;2023-06-10T13:49:15;3.63;;;1.50;;
26407;SDS011;14583;43.604;1.364;2023-06-10T13:51:41;4.25;;;3.38;;
26407;SDS011;14583;43.604;1.364;2023-06-10T13:54:07;6.75;;;4.72;;
26407;SDS011;14583;43.604;1.364;2023-06-10T13:56:32;3.22;;;1.90;;
26407;SDS011;14583;43.604;1.364;2023-06-10T13:59:03;2.67;;;1.48;;
26407;SDS011;14583;43.604;1.364;2023-06-10T14:01:28;3.20;;;1.70;;
26407;SDS011;14583;43.604;1.364;2023-06-10T14:03:54;5.72;;;1.63;;
26407;SDS011;14583;43.604;1.364;2023-06-10T14:06:20;6.18;;;1.20;;
26407;SDS011;14583;43.604;1.364;2023-06-10T14:08:48;3.50;;;1.73;;
26407;SDS011;14583;43.604;1.364;2023-06-10T14:11:13;2.78;;;1.40;;
26407;SDS011;14583;43.604;1.364;2023-06-10T14:13:39;4.28;;;1.60;;
26407;SDS011;14583;43.604;1.364;2023-06-10T14:16:05;2.85;;;1.38;;
26407;SDS011;14583;43.604;1.364;2023-06-10T14:18:31;2.10;;;1.52;;
26407;SDS011;14583;43.604;1.364;2023-06-10T14:20:57;4.45;;;1.30;;
26407;SDS011;14583;43.604;1.364;2023-06-10T14:23:22;1.48;;;1.02;;
26407;SDS011;14583;43.604;1.364;2023-06-10T14:25:50;1.65;;;1.20;;
26407;SDS011;14583;43.604;1.364;2023-06-10T14:28:16;2.55;;;1.40;;
26407;SDS011;14583;43.604;1.364;2023-06-10T14:30:41;2.42;;;1.20;;
26407;SDS011;14583;43.604;1.364;2023-06-10T14:33:07;1.75;;;1.00;;
26407;SDS011;14583;43.604;1.364;2023-06-10T14:35:33;2.60;;;1.40;;
26407;SDS011;14583;43.604;1.364;2023-06-10T14:37:58;2.53;;;1.50;;
26407;SDS011;14583;43.604;1.364;2023-06-10T14:40:24;1.70;;;1.25;;
26407;SDS011;14583;43.604;1.364;2023-06-10T14:42:53;1.63;;;1.20;;
26407;SDS011;14583;43.604;1.364;2023-06-10T14:45:22;3.15;;;1.33;;
26407;SDS011;14583;43.604;1.364;2023-06-10T14:47:48;1.15;;;0.90;;
26407;SDS011;14583;43.604;1.364;2023-06-10T14:50:13;2.15;;;1.65;;
26407;SDS011;14583;43.604;1.364;2023-06-10T14:52:39;5.00;;;2.15;;
26407;SDS011;14583;43.604;1.364;2023-06-10T14:55:05;2.80;;;1.60;;
26407;SDS011;14583;43.604;1.364;2023-06-10T14:57:31;3.47;;;1.40;;
26407;SDS011;14583;43.604;1.364;2023-06-10T14:59:57;2.40;;;1.23;;
26407;SDS011;14583;43.604;1.364;2023-06-10T15:02:23;1.25;;;1.15;;